aviador You're here:

OICI Decoded Metar

ILAM in IRAN
Report Time2018-04-24 14:00:00
UTC Time2018-04-24 14:20:43
Flight Rules vfr VFR
Wind260° at 04 kt
W.Decomp.*RWY 32: 1.8 kt HW 3.6 kt LCW
W.Rank260° ranks 7
Current wind is below 260° avg. (8.0)
Visibility9999 m
Phenomena:N/A
Clouds:Scattered 040 Hf
Expected CloudBase > 6,000 ft AGL from Temp-Dew spread
CeilingNone
Temp20°C (ISA +14)
Dew Point05°C (38% RH)
AAT17.5°C
QNH1020 hPa
Density Alt5,883 ft
Elevation4,403 ft
Report Wrong Elevation
Raw Report
METAR OICI 241400Z 26004KT 9999 SCT040 20/05 Q1020=

Extra information for OICI:More info

Metar Taf Metar & Taf Last 4 Metars F.Rules Stats Wind Profile Meteogram Temp Stats Airport Information Weather charts Add Link Nearby VenuesMetar ALERT Operation Metar Decoded Social comments